ナイロビ の空港の天気 - METARとTAF

ジョモ・ケニヤッタ国際空港 ( HKJK / NBO ) - ケニア ナイロビ
飛行場実況気象(Metar)
観測時間08/25 21:30 EAT (08/25 18:30 UTC)
風向・風速南南東 4m/s
視程10km以上
天気現象
全天の4割程度の雲 雲底高度 910m
気温20℃
湿度56%
気圧1024hPa
METARHKJK 251830Z 15007KT 9999 SCT030 20/11 Q1024 NOSIG
過去の天気等 Google飛行場航空写真 Wunderground天気予報

過去48時間のMETAR

飛行場予報(TAF)
発表時間: 8/25 20:00 EAT (8/25 17:00 UTC)
予報対象時間: 25日21時 EAT ~ 27日3時 EAT
風向・風速不定 3m/s
視程10km以上
全天の8割程度の雲 雲底高度 670m
26日3時 EAT ~ 26日9時 EAT に一時的に
風向・風速南南西 3m/s
少しの雲 雲底高度 240m
全天の8割程度の雲 雲底高度 490m
26日11時 EAT ~ 26日14時 EAT に徐々に
風向・風速東南東 5m/s
全天の8割程度の雲 雲底高度 790m
26日23時 EAT ~ 27日2時 EAT に徐々に
風向・風速不定 3m/s
全天の8割程度の雲 雲底高度 670m
TAF HKJK 251700Z 2518/2624 VRB05KT 9999 BKN022
TEMPO 2600/2606 20005KT FEW008 BKN016
BECMG 2608/2611 12010KT BKN026
BECMG 2620/2623 VRB05KT BKN022